sensor_id;sensor_type;location;lat;lon;timestamp;pressure;altitude;pressure_sealevel;temperature;humidity
50087;BME280;35967;50.718;7.050;2023-02-28T00:06:25;102073.81;;;1.07;63.23
50087;BME280;35967;50.718;7.050;2023-02-28T00:16:28;102077.75;;;0.79;63.73
50087;BME280;35967;50.718;7.050;2023-02-28T00:26:32;102083.69;;;1.01;65.33
50087;BME280;35967;50.718;7.050;2023-02-28T00:36:36;102083.41;;;0.93;65.63
50087;BME280;35967;50.718;7.050;2023-02-28T00:46:40;102091.03;;;0.73;64.90
50087;BME280;35967;50.718;7.050;2023-02-28T00:56:43;102085.88;;;0.51;65.27
50087;BME280;35967;50.718;7.050;2023-02-28T01:06:49;102092.28;;;0.42;68.38
50087;BME280;35967;50.718;7.050;2023-02-28T01:16:52;102088.47;;;0.52;68.39
50087;BME280;35967;50.718;7.050;2023-02-28T01:26:56;102093.00;;;0.59;68.10
50087;BME280;35967;50.718;7.050;2023-02-28T01:37:00;102090.94;;;0.51;67.98
50087;BME280;35967;50.718;7.050;2023-02-28T01:47:04;102092.47;;;0.47;67.96
50087;BME280;35967;50.718;7.050;2023-02-28T01:57:10;102076.81;;;0.56;68.15
50087;BME280;35967;50.718;7.050;2023-02-28T02:07:17;102067.75;;;0.41;67.04
50087;BME280;35967;50.718;7.050;2023-02-28T02:17:26;102059.50;;;0.26;66.82
50087;BME280;35967;50.718;7.050;2023-02-28T02:27:39;102064.25;;;0.18;67.89
50087;BME280;35967;50.718;7.050;2023-02-28T02:37:58;102060.25;;;0.04;67.31
50087;BME280;35967;50.718;7.050;2023-02-28T02:48:06;102060.56;;;-0.08;68.37
50087;BME280;35967;50.718;7.050;2023-02-28T02:58:16;102062.53;;;-0.40;67.30
50087;BME280;35967;50.718;7.050;2023-02-28T03:08:21;102065.06;;;-0.40;68.55
50087;BME280;35967;50.718;7.050;2023-02-28T03:18:32;102045.50;;;-0.43;69.17
50087;BME280;35967;50.718;7.050;2023-02-28T03:28:42;102044.19;;;-0.54;68.50
50087;BME280;35967;50.718;7.050;2023-02-28T03:50:39;102048.81;;;-0.82;68.25
50087;BME280;35967;50.718;7.050;2023-02-28T04:00:45;102056.97;;;-0.87;70.62
50087;BME280;35967;50.718;7.050;2023-02-28T04:10:54;102051.75;;;-0.54;69.38
50087;BME280;35967;50.718;7.050;2023-02-28T04:20:59;102061.22;;;-0.86;69.54
50087;BME280;35967;50.718;7.050;2023-02-28T04:31:05;102062.88;;;-0.87;68.57
50087;BME280;35967;50.718;7.050;2023-02-28T04:41:08;102059.28;;;-0.92;68.27
50087;BME280;35967;50.718;7.050;2023-02-28T04:51:14;102072.34;;;-1.01;69.61
50087;BME280;35967;50.718;7.050;2023-02-28T05:01:20;102068.03;;;-1.20;69.52
50087;BME280;35967;50.718;7.050;2023-02-28T05:11:27;102085.56;;;-1.06;71.24
50087;BME280;35967;50.718;7.050;2023-02-28T05:21:36;102092.25;;;-1.41;71.03
50087;BME280;35967;50.718;7.050;2023-02-28T05:31:41;102087.50;;;-1.01;70.70
50087;BME280;35967;50.718;7.050;2023-02-28T05:41:44;102086.69;;;-1.00;69.71
50087;BME280;35967;50.718;7.050;2023-02-28T05:51:49;102089.53;;;-1.28;69.17
50087;BME280;35967;50.718;7.050;2023-02-28T06:01:52;102090.84;;;-1.53;70.95
50087;BME280;35967;50.718;7.050;2023-02-28T06:11:58;102094.03;;;-1.39;69.79
50087;BME280;35967;50.718;7.050;2023-02-28T06:22:01;102095.78;;;-1.38;68.82
50087;BME280;35967;50.718;7.050;2023-02-28T06:32:06;102114.69;;;-1.13;69.02
50087;BME280;35967;50.718;7.050;2023-02-28T06:42:09;102115.34;;;-1.17;68.98
50087;BME280;35967;50.718;7.050;2023-02-28T06:52:13;102125.09;;;-1.07;69.92
50087;BME280;35967;50.718;7.050;2023-02-28T07:02:16;102143.31;;;-0.96;70.94
50087;BME280;35967;50.718;7.050;2023-02-28T07:12:21;102143.81;;;-0.69;71.19
50087;BME280;35967;50.718;7.050;2023-02-28T07:22:24;102137.72;;;-0.18;71.30
50087;BME280;35967;50.718;7.050;2023-02-28T07:32:29;102137.47;;;0.13;70.65
50087;BME280;35967;50.718;7.050;2023-02-28T07:42:32;102140.34;;;0.41;68.66
50087;BME280;35967;50.718;7.050;2023-02-28T07:52:37;102141.66;;;0.52;68.16
50087;BME280;35967;50.718;7.050;2023-02-28T08:02:40;102144.75;;;0.65;64.30
50087;BME280;35967;50.718;7.050;2023-02-28T08:12:44;102142.66;;;0.75;60.91
50087;BME280;35967;50.718;7.050;2023-02-28T08:22:48;102152.06;;;1.40;58.57
50087;BME280;35967;50.718;7.050;2023-02-28T08:32:53;102146.66;;;1.32;57.28
50087;BME280;35967;50.718;7.050;2023-02-28T08:42:57;102148.63;;;1.39;55.00
50087;BME280;35967;50.718;7.050;2023-02-28T08:53:01;102150.06;;;1.33;54.63
50087;BME280;35967;50.718;7.050;2023-02-28T09:03:05;102151.91;;;1.58;52.91
50087;BME280;35967;50.718;7.050;2023-02-28T09:13:10;102137.31;;;1.98;51.50
50087;BME280;35967;50.718;7.050;2023-02-28T09:23:13;102143.03;;;2.15;49.08
50087;BME280;35967;50.718;7.050;2023-02-28T09:33:18;102131.09;;;2.12;47.90
50087;BME280;35967;50.718;7.050;2023-02-28T09:43:26;102140.34;;;1.87;49.10
50087;BME280;35967;50.718;7.050;2023-02-28T09:53:33;102135.72;;;2.47;48.40
50087;BME280;35967;50.718;7.050;2023-02-28T10:03:39;102127.53;;;2.80;47.33
50087;BME280;35967;50.718;7.050;2023-02-28T10:13:53;102124.63;;;3.50;44.99
50087;BME280;35967;50.718;7.050;2023-02-28T10:24:03;102122.91;;;3.48;43.26
50087;BME280;35967;50.718;7.050;2023-02-28T10:34:11;102105.47;;;3.32;41.85
50087;BME280;35967;50.718;7.050;2023-02-28T10:44:20;102090.22;;;3.62;41.95
50087;BME280;35967;50.718;7.050;2023-02-28T10:54:28;102087.72;;;3.93;42.74
50087;BME280;35967;50.718;7.050;2023-02-28T11:04:35;102083.19;;;3.83;39.84
50087;BME280;35967;50.718;7.050;2023-02-28T11:14:49;102088.28;;;4.45;38.97
50087;BME280;35967;50.718;7.050;2023-02-28T11:24:55;102082.97;;;4.05;39.40
50087;BME280;35967;50.718;7.050;2023-02-28T11:35:04;102063.19;;;4.61;37.90
50087;BME280;35967;50.718;7.050;2023-02-28T11:45:28;102060.19;;;5.12;37.71
50087;BME280;35967;50.718;7.050;2023-02-28T11:55:39;102056.88;;;4.81;36.54
50087;BME280;35967;50.718;7.050;2023-02-28T12:05:45;102065.88;;;5.39;36.90
50087;BME280;35967;50.718;7.050;2023-02-28T12:16:04;102052.31;;;5.41;37.50
50087;BME280;35967;50.718;7.050;2023-02-28T12:26:16;102055.78;;;4.70;38.21
50087;BME280;35967;50.718;7.050;2023-02-28T12:36:23;102039.78;;;5.53;37.73
50087;BME280;35967;50.718;7.050;2023-02-28T12:46:32;102037.50;;;6.09;38.67
50087;BME280;35967;50.718;7.050;2023-02-28T12:56:44;102018.78;;;6.10;35.64
50087;BME280;35967;50.718;7.050;2023-02-28T13:07:05;102001.72;;;6.07;35.78
50087;BME280;35967;50.718;7.050;2023-02-28T13:17:19;101995.47;;;5.94;35.78
50087;BME280;35967;50.718;7.050;2023-02-28T13:27:37;101990.19;;;6.31;35.50
50087;BME280;35967;50.718;7.050;2023-02-28T13:37:44;101990.13;;;6.28;36.26
50087;BME280;35967;50.718;7.050;2023-02-28T13:47:52;101989.53;;;5.95;35.63
50087;BME280;35967;50.718;7.050;2023-02-28T13:58:10;101987.88;;;6.46;36.48
50087;BME280;35967;50.718;7.050;2023-02-28T14:08:21;101985.75;;;6.22;36.18
50087;BME280;35967;50.718;7.050;2023-02-28T14:18:30;101967.88;;;6.22;35.71
50087;BME280;35967;50.718;7.050;2023-02-28T14:28:46;101965.31;;;6.22;36.65
50087;BME280;35967;50.718;7.050;2023-02-28T14:38:56;101951.44;;;6.08;37.09
50087;BME280;35967;50.718;7.050;2023-02-28T14:49:00;101948.50;;;5.89;37.25
50087;BME280;35967;50.718;7.050;2023-02-28T14:59:31;101954.22;;;5.74;37.46
50087;BME280;35967;50.718;7.050;2023-02-28T15:09:34;101953.81;;;5.54;37.99
50087;BME280;35967;50.718;7.050;2023-02-28T15:19:40;101954.72;;;5.56;38.26
50087;BME280;35967;50.718;7.050;2023-02-28T15:29:47;101942.00;;;5.59;38.48
50087;BME280;35967;50.718;7.050;2023-02-28T15:39:54;101943.97;;;5.30;39.01
50087;BME280;35967;50.718;7.050;2023-02-28T15:49:59;101944.75;;;5.27;38.72
50087;BME280;35967;50.718;7.050;2023-02-28T16:00:11;101938.16;;;5.37;38.86
50087;BME280;35967;50.718;7.050;2023-02-28T16:10:15;101946.59;;;5.33;39.25
50087;BME280;35967;50.718;7.050;2023-02-28T16:20:22;101951.69;;;5.31;39.63
50087;BME280;35967;50.718;7.050;2023-02-28T16:30:27;101952.88;;;5.08;40.35
50087;BME280;35967;50.718;7.050;2023-02-28T16:40:35;101962.38;;;5.15;39.79
50087;BME280;35967;50.718;7.050;2023-02-28T16:50:39;101966.56;;;5.11;41.03
50087;BME280;35967;50.718;7.050;2023-02-28T17:00:43;101974.84;;;5.01;40.65
50087;BME280;35967;50.718;7.050;2023-02-28T17:10:47;101981.69;;;5.02;40.95
50087;BME280;35967;50.718;7.050;2023-02-28T17:20:52;102000.97;;;4.90;41.52
50087;BME280;35967;50.718;7.050;2023-02-28T17:30:54;102008.78;;;5.36;49.62
50087;BME280;35967;50.718;7.050;2023-02-28T17:41:00;102022.97;;;5.63;48.46
50087;BME280;35967;50.718;7.050;2023-02-28T17:51:03;102026.69;;;4.98;44.62
50087;BME280;35967;50.718;7.050;2023-02-28T18:01:08;102024.00;;;4.57;43.89
50087;BME280;35967;50.718;7.050;2023-02-28T18:11:14;102029.16;;;4.26;45.10
50087;BME280;35967;50.718;7.050;2023-02-28T18:21:23;102029.28;;;3.99;45.63
50087;BME280;35967;50.718;7.050;2023-02-28T18:31:27;102045.88;;;3.85;46.69
50087;BME280;35967;50.718;7.050;2023-02-28T18:41:34;102034.44;;;3.70;49.08
50087;BME280;35967;50.718;7.050;2023-02-28T18:51:37;102035.59;;;3.51;49.09
50087;BME280;35967;50.718;7.050;2023-02-28T19:01:41;102047.53;;;3.52;50.21
50087;BME280;35967;50.718;7.050;2023-02-28T19:11:47;102055.31;;;3.29;50.82
50087;BME280;35967;50.718;7.050;2023-02-28T19:21:51;102058.81;;;3.33;50.89
50087;BME280;35967;50.718;7.050;2023-02-28T19:31:57;102075.00;;;3.08;51.33
50087;BME280;35967;50.718;7.050;2023-02-28T19:42:22;102082.03;;;3.16;51.50
50087;BME280;35967;50.718;7.050;2023-02-28T19:52:26;102076.41;;;2.98;53.70
50087;BME280;35967;50.718;7.050;2023-02-28T20:02:30;102088.63;;;2.82;53.28
50087;BME280;35967;50.718;7.050;2023-02-28T20:12:33;102086.09;;;2.84;54.30
50087;BME280;35967;50.718;7.050;2023-02-28T20:22:38;102081.44;;;2.71;55.54
50087;BME280;35967;50.718;7.050;2023-02-28T20:32:42;102072.53;;;2.58;55.28
50087;BME280;35967;50.718;7.050;2023-02-28T20:42:47;102072.47;;;2.30;55.56
50087;BME280;35967;50.718;7.050;2023-02-28T20:52:50;102077.59;;;2.32;56.06
50087;BME280;35967;50.718;7.050;2023-02-28T21:02:54;102071.41;;;2.25;57.09
50087;BME280;35967;50.718;7.050;2023-02-28T21:12:59;102068.25;;;2.07;56.39
50087;BME280;35967;50.718;7.050;2023-02-28T21:23:04;102065.56;;;1.79;56.57
50087;BME280;35967;50.718;7.050;2023-02-28T21:33:07;102083.97;;;1.51;56.77
50087;BME280;35967;50.718;7.050;2023-02-28T21:43:11;102075.69;;;1.56;57.38
50087;BME280;35967;50.718;7.050;2023-02-28T21:53:15;102083.56;;;1.40;56.85
50087;BME280;35967;50.718;7.050;2023-02-28T22:03:19;102094.25;;;1.33;57.48
50087;BME280;35967;50.718;7.050;2023-02-28T22:13:24;102102.03;;;1.37;59.22
50087;BME280;35967;50.718;7.050;2023-02-28T22:23:29;102109.38;;;1.08;58.07
50087;BME280;35967;50.718;7.050;2023-02-28T22:33:32;102109.22;;;1.05;59.31
50087;BME280;35967;50.718;7.050;2023-02-28T22:43:57;102103.97;;;1.01;60.12
50087;BME280;35967;50.718;7.050;2023-02-28T22:54:00;102112.66;;;1.06;60.61
50087;BME280;35967;50.718;7.050;2023-02-28T23:04:06;102088.09;;;1.05;61.25
50087;BME280;35967;50.718;7.050;2023-02-28T23:14:10;102092.78;;;0.96;60.91
50087;BME280;35967;50.718;7.050;2023-02-28T23:24:17;102083.69;;;1.01;61.21
50087;BME280;35967;50.718;7.050;2023-02-28T23:34:21;102089.56;;;0.78;59.95
50087;BME280;35967;50.718;7.050;2023-02-28T23:44:28;102096.91;;;0.72;61.17
50087;BME280;35967;50.718;7.050;2023-02-28T23:54:32;102094.41;;;0.53;61.45
